sensor_id;sensor_type;location;lat;lon;timestamp;temperature;humidity
20459;DHT22;10388;52.314;7.938;2022-10-28T00:02:00;14.40;99.90
20459;DHT22;10388;52.314;7.938;2022-10-28T00:04:30;14.40;99.90
20459;DHT22;10388;52.314;7.938;2022-10-28T00:07:02;14.30;99.90
20459;DHT22;10388;52.314;7.938;2022-10-28T00:09:32;14.30;99.90
20459;DHT22;10388;52.314;7.938;2022-10-28T00:12:03;14.20;99.90
20459;DHT22;10388;52.314;7.938;2022-10-28T00:14:34;14.20;99.90
20459;DHT22;10388;52.314;7.938;2022-10-28T00:17:04;14.20;99.90
20459;DHT22;10388;52.314;7.938;2022-10-28T00:19:35;14.10;99.90
20459;DHT22;10388;52.314;7.938;2022-10-28T00:22:05;14.10;99.90
20459;DHT22;10388;52.314;7.938;2022-10-28T00:24:36;14.10;99.90
20459;DHT22;10388;52.314;7.938;2022-10-28T00:27:06;14.10;99.90
20459;DHT22;10388;52.314;7.938;2022-10-28T00:29:37;14.00;99.90
20459;DHT22;10388;52.314;7.938;2022-10-28T00:32:07;14.00;99.90
20459;DHT22;10388;52.314;7.938;2022-10-28T00:34:38;14.10;99.90
20459;DHT22;10388;52.314;7.938;2022-10-28T00:37:08;14.10;99.90
20459;DHT22;10388;52.314;7.938;2022-10-28T00:39:39;14.10;99.90
20459;DHT22;10388;52.314;7.938;2022-10-28T00:42:10;14.10;99.90
20459;DHT22;10388;52.314;7.938;2022-10-28T00:44:54;14.10;99.90
20459;DHT22;10388;52.314;7.938;2022-10-28T00:53:03;14.10;99.90
20459;DHT22;10388;52.314;7.938;2022-10-28T00:55:35;14.00;99.90
20459;DHT22;10388;52.314;7.938;2022-10-28T00:58:06;14.00;99.90
20459;DHT22;10388;52.314;7.938;2022-10-28T01:00:37;14.00;99.90
20459;DHT22;10388;52.314;7.938;2022-10-28T01:03:08;14.00;99.90
20459;DHT22;10388;52.314;7.938;2022-10-28T01:05:41;14.00;99.90
20459;DHT22;10388;52.314;7.938;2022-10-28T01:08:12;14.00;99.90
20459;DHT22;10388;52.314;7.938;2022-10-28T01:11:01;14.00;99.90
20459;DHT22;10388;52.314;7.938;2022-10-28T01:13:43;14.00;99.90
20459;DHT22;10388;52.314;7.938;2022-10-28T01:22:34;13.90;99.90
20459;DHT22;10388;52.314;7.938;2022-10-28T01:25:28;14.00;99.90
20459;DHT22;10388;52.314;7.938;2022-10-28T01:33:34;14.00;99.90
20459;DHT22;10388;52.314;7.938;2022-10-28T01:42:07;13.90;99.90
20459;DHT22;10388;52.314;7.938;2022-10-28T01:45:06;14.00;99.90
20459;DHT22;10388;52.314;7.938;2022-10-28T01:47:58;14.10;99.90
20459;DHT22;10388;52.314;7.938;2022-10-28T01:50:39;14.10;99.90
20459;DHT22;10388;52.314;7.938;2022-10-28T01:53:17;14.10;99.90
20459;DHT22;10388;52.314;7.938;2022-10-28T01:55:51;14.10;99.90
20459;DHT22;10388;52.314;7.938;2022-10-28T01:58:27;14.10;99.90
20459;DHT22;10388;52.314;7.938;2022-10-28T02:00:59;14.20;99.90
20459;DHT22;10388;52.314;7.938;2022-10-28T02:03:31;14.20;99.90
20459;DHT22;10388;52.314;7.938;2022-10-28T02:06:06;14.30;99.90
20459;DHT22;10388;52.314;7.938;2022-10-28T02:11:32;14.30;99.90
20459;DHT22;10388;52.314;7.938;2022-10-28T02:17:16;14.20;99.90
20459;DHT22;10388;52.314;7.938;2022-10-28T02:20:30;14.20;99.90
20459;DHT22;10388;52.314;7.938;2022-10-28T02:23:31;14.10;99.90
20459;DHT22;10388;52.314;7.938;2022-10-28T02:26:15;14.00;99.90
20459;DHT22;10388;52.314;7.938;2022-10-28T02:29:01;13.90;99.90
20459;DHT22;10388;52.314;7.938;2022-10-28T02:31:44;13.80;99.90
20459;DHT22;10388;52.314;7.938;2022-10-28T02:34:21;13.80;99.90
20459;DHT22;10388;52.314;7.938;2022-10-28T02:36:54;13.70;99.90
20459;DHT22;10388;52.314;7.938;2022-10-28T02:39:35;13.70;99.90
20459;DHT22;10388;52.314;7.938;2022-10-28T02:42:16;13.60;99.90
20459;DHT22;10388;52.314;7.938;2022-10-28T02:44:54;13.50;99.90
20459;DHT22;10388;52.314;7.938;2022-10-28T02:47:29;13.50;99.90
20459;DHT22;10388;52.314;7.938;2022-10-28T02:50:05;13.40;99.90
20459;DHT22;10388;52.314;7.938;2022-10-28T02:52:39;13.40;99.90
20459;DHT22;10388;52.314;7.938;2022-10-28T02:55:11;13.40;99.90
20459;DHT22;10388;52.314;7.938;2022-10-28T02:57:44;13.30;99.90
20459;DHT22;10388;52.314;7.938;2022-10-28T03:00:19;13.30;99.90
20459;DHT22;10388;52.314;7.938;2022-10-28T03:02:51;13.30;99.90
20459;DHT22;10388;52.314;7.938;2022-10-28T03:05:22;13.20;99.90
20459;DHT22;10388;52.314;7.938;2022-10-28T03:07:52;13.10;99.90
20459;DHT22;10388;52.314;7.938;2022-10-28T03:10:23;13.10;99.90
20459;DHT22;10388;52.314;7.938;2022-10-28T03:12:53;13.00;99.90
20459;DHT22;10388;52.314;7.938;2022-10-28T03:15:24;13.00;99.90
20459;DHT22;10388;52.314;7.938;2022-10-28T03:17:55;12.90;99.90
20459;DHT22;10388;52.314;7.938;2022-10-28T03:20:25;12.90;99.90
20459;DHT22;10388;52.314;7.938;2022-10-28T03:22:56;12.80;99.90
20459;DHT22;10388;52.314;7.938;2022-10-28T03:25:26;12.80;99.90
20459;DHT22;10388;52.314;7.938;2022-10-28T03:27:57;12.70;99.90
20459;DHT22;10388;52.314;7.938;2022-10-28T03:30:27;12.70;99.90
20459;DHT22;10388;52.314;7.938;2022-10-28T03:32:58;12.70;99.90
20459;DHT22;10388;52.314;7.938;2022-10-28T03:35:28;12.70;99.90
20459;DHT22;10388;52.314;7.938;2022-10-28T03:37:59;12.60;99.90
20459;DHT22;10388;52.314;7.938;2022-10-28T03:40:30;12.60;99.90
20459;DHT22;10388;52.314;7.938;2022-10-28T03:43:00;12.60;99.90
20459;DHT22;10388;52.314;7.938;2022-10-28T03:45:31;12.50;99.90
20459;DHT22;10388;52.314;7.938;2022-10-28T03:48:01;12.50;99.90
20459;DHT22;10388;52.314;7.938;2022-10-28T03:50:32;12.50;99.90
20459;DHT22;10388;52.314;7.938;2022-10-28T03:53:02;12.40;99.90
20459;DHT22;10388;52.314;7.938;2022-10-28T03:55:33;12.40;99.90
20459;DHT22;10388;52.314;7.938;2022-10-28T03:58:04;12.40;99.90
20459;DHT22;10388;52.314;7.938;2022-10-28T04:00:34;12.30;99.90
20459;DHT22;10388;52.314;7.938;2022-10-28T04:03:05;12.30;99.90
20459;DHT22;10388;52.314;7.938;2022-10-28T04:05:35;12.20;99.90
20459;DHT22;10388;52.314;7.938;2022-10-28T04:08:06;12.30;99.90
20459;DHT22;10388;52.314;7.938;2022-10-28T04:10:37;12.20;99.90
20459;DHT22;10388;52.314;7.938;2022-10-28T04:13:07;12.20;99.90
20459;DHT22;10388;52.314;7.938;2022-10-28T04:15:38;12.20;99.90
20459;DHT22;10388;52.314;7.938;2022-10-28T04:18:09;12.10;99.90
20459;DHT22;10388;52.314;7.938;2022-10-28T04:20:40;12.10;99.90
20459;DHT22;10388;52.314;7.938;2022-10-28T04:23:14;12.00;99.90
20459;DHT22;10388;52.314;7.938;2022-10-28T04:25:45;12.00;99.90
20459;DHT22;10388;52.314;7.938;2022-10-28T04:28:15;12.00;99.90
20459;DHT22;10388;52.314;7.938;2022-10-28T04:30:46;11.90;99.90
20459;DHT22;10388;52.314;7.938;2022-10-28T04:33:17;11.90;99.90
20459;DHT22;10388;52.314;7.938;2022-10-28T04:35:48;11.90;99.90
20459;DHT22;10388;52.314;7.938;2022-10-28T04:38:18;11.80;99.90
20459;DHT22;10388;52.314;7.938;2022-10-28T04:40:49;11.80;99.90
20459;DHT22;10388;52.314;7.938;2022-10-28T04:43:19;11.80;99.90
20459;DHT22;10388;52.314;7.938;2022-10-28T04:45:50;11.70;99.90
20459;DHT22;10388;52.314;7.938;2022-10-28T04:48:21;11.70;99.90
20459;DHT22;10388;52.314;7.938;2022-10-28T04:50:51;11.70;99.90
20459;DHT22;10388;52.314;7.938;2022-10-28T04:53:22;11.70;99.90
20459;DHT22;10388;52.314;7.938;2022-10-28T04:55:57;11.70;99.90
20459;DHT22;10388;52.314;7.938;2022-10-28T05:01:06;11.60;99.90
20459;DHT22;10388;52.314;7.938;2022-10-28T05:03:37;11.60;99.90
20459;DHT22;10388;52.314;7.938;2022-10-28T05:06:07;11.60;99.90
20459;DHT22;10388;52.314;7.938;2022-10-28T05:08:38;11.50;99.90
20459;DHT22;10388;52.314;7.938;2022-10-28T05:11:08;11.50;99.90
20459;DHT22;10388;52.314;7.938;2022-10-28T05:13:39;11.50;99.90
20459;DHT22;10388;52.314;7.938;2022-10-28T05:16:09;11.40;99.90
20459;DHT22;10388;52.314;7.938;2022-10-28T05:18:40;11.40;99.90
20459;DHT22;10388;52.314;7.938;2022-10-28T05:21:10;11.40;99.90
20459;DHT22;10388;52.314;7.938;2022-10-28T05:23:41;11.40;99.90
20459;DHT22;10388;52.314;7.938;2022-10-28T05:26:12;11.30;99.90
20459;DHT22;10388;52.314;7.938;2022-10-28T05:28:42;11.30;99.90
20459;DHT22;10388;52.314;7.938;2022-10-28T05:31:13;11.30;99.90
20459;DHT22;10388;52.314;7.938;2022-10-28T05:33:43;11.30;99.90
20459;DHT22;10388;52.314;7.938;2022-10-28T05:36:14;11.30;99.90
20459;DHT22;10388;52.314;7.938;2022-10-28T05:38:44;11.30;99.90
20459;DHT22;10388;52.314;7.938;2022-10-28T05:41:15;11.20;99.90
20459;DHT22;10388;52.314;7.938;2022-10-28T05:43:45;11.20;99.90
20459;DHT22;10388;52.314;7.938;2022-10-28T05:46:16;11.20;99.90
20459;DHT22;10388;52.314;7.938;2022-10-28T05:48:47;11.20;99.90
20459;DHT22;10388;52.314;7.938;2022-10-28T05:51:18;11.20;99.90
20459;DHT22;10388;52.314;7.938;2022-10-28T05:53:48;11.10;99.90
20459;DHT22;10388;52.314;7.938;2022-10-28T05:56:20;11.10;99.90
20459;DHT22;10388;52.314;7.938;2022-10-28T05:58:50;11.10;99.90
20459;DHT22;10388;52.314;7.938;2022-10-28T06:01:21;11.10;99.90
20459;DHT22;10388;52.314;7.938;2022-10-28T06:03:51;11.10;99.90
20459;DHT22;10388;52.314;7.938;2022-10-28T06:06:22;11.00;99.90
20459;DHT22;10388;52.314;7.938;2022-10-28T06:08:53;11.00;99.90
20459;DHT22;10388;52.314;7.938;2022-10-28T06:11:23;11.00;99.90
20459;DHT22;10388;52.314;7.938;2022-10-28T06:13:54;11.00;99.90
20459;DHT22;10388;52.314;7.938;2022-10-28T06:16:24;11.00;99.90
20459;DHT22;10388;52.314;7.938;2022-10-28T06:18:55;11.00;99.90
20459;DHT22;10388;52.314;7.938;2022-10-28T06:21:25;11.00;99.90
20459;DHT22;10388;52.314;7.938;2022-10-28T06:23:56;11.10;99.90
20459;DHT22;10388;52.314;7.938;2022-10-28T06:26:26;11.10;99.90
20459;DHT22;10388;52.314;7.938;2022-10-28T06:28:57;11.10;99.90
20459;DHT22;10388;52.314;7.938;2022-10-28T06:31:27;11.10;99.90
20459;DHT22;10388;52.314;7.938;2022-10-28T06:33:58;11.10;99.90
20459;DHT22;10388;52.314;7.938;2022-10-28T06:36:28;11.10;99.90
20459;DHT22;10388;52.314;7.938;2022-10-28T06:38:59;11.10;99.90
20459;DHT22;10388;52.314;7.938;2022-10-28T06:41:29;11.10;99.90
20459;DHT22;10388;52.314;7.938;2022-10-28T06:44:00;11.10;99.90
20459;DHT22;10388;52.314;7.938;2022-10-28T06:46:31;11.10;99.90
20459;DHT22;10388;52.314;7.938;2022-10-28T06:49:01;11.10;99.90
20459;DHT22;10388;52.314;7.938;2022-10-28T06:51:32;11.10;99.90
20459;DHT22;10388;52.314;7.938;2022-10-28T06:54:03;11.10;99.90
20459;DHT22;10388;52.314;7.938;2022-10-28T06:56:33;11.10;99.90
20459;DHT22;10388;52.314;7.938;2022-10-28T06:59:04;11.20;99.90
20459;DHT22;10388;52.314;7.938;2022-10-28T07:01:34;11.20;99.90
20459;DHT22;10388;52.314;7.938;2022-10-28T07:04:05;11.20;99.90
20459;DHT22;10388;52.314;7.938;2022-10-28T07:06:36;11.20;99.90
20459;DHT22;10388;52.314;7.938;2022-10-28T07:09:08;11.20;99.90
20459;DHT22;10388;52.314;7.938;2022-10-28T07:11:39;11.20;99.90
20459;DHT22;10388;52.314;7.938;2022-10-28T07:14:10;11.20;99.90
20459;DHT22;10388;52.314;7.938;2022-10-28T07:16:41;11.30;99.90
20459;DHT22;10388;52.314;7.938;2022-10-28T07:19:11;11.30;99.90
20459;DHT22;10388;52.314;7.938;2022-10-28T07:21:42;11.40;99.90
20459;DHT22;10388;52.314;7.938;2022-10-28T07:24:12;11.40;99.90
20459;DHT22;10388;52.314;7.938;2022-10-28T07:26:43;11.50;99.90
20459;DHT22;10388;52.314;7.938;2022-10-28T07:29:14;11.50;99.90
20459;DHT22;10388;52.314;7.938;2022-10-28T07:31:45;11.60;99.90
20459;DHT22;10388;52.314;7.938;2022-10-28T07:34:15;11.70;99.90
20459;DHT22;10388;52.314;7.938;2022-10-28T07:36:50;11.90;99.90
20459;DHT22;10388;52.314;7.938;2022-10-28T07:39:21;12.10;99.90
20459;DHT22;10388;52.314;7.938;2022-10-28T07:41:51;12.40;99.90
20459;DHT22;10388;52.314;7.938;2022-10-28T07:44:22;12.60;99.90
20459;DHT22;10388;52.314;7.938;2022-10-28T07:46:53;12.70;99.90
20459;DHT22;10388;52.314;7.938;2022-10-28T07:49:23;12.90;99.90
20459;DHT22;10388;52.314;7.938;2022-10-28T07:51:54;13.10;99.90
20459;DHT22;10388;52.314;7.938;2022-10-28T07:54:24;13.30;99.90
20459;DHT22;10388;52.314;7.938;2022-10-28T07:56:55;13.50;99.90
20459;DHT22;10388;52.314;7.938;2022-10-28T07:59:25;13.70;99.90
20459;DHT22;10388;52.314;7.938;2022-10-28T08:01:56;14.00;99.90
20459;DHT22;10388;52.314;7.938;2022-10-28T08:04:31;14.10;99.90
20459;DHT22;10388;52.314;7.938;2022-10-28T08:07:02;14.30;99.90
20459;DHT22;10388;52.314;7.938;2022-10-28T08:09:32;14.70;99.90
20459;DHT22;10388;52.314;7.938;2022-10-28T08:12:04;14.80;99.90
20459;DHT22;10388;52.314;7.938;2022-10-28T08:14:34;15.00;99.90
20459;DHT22;10388;52.314;7.938;2022-10-28T08:17:05;15.10;99.90
20459;DHT22;10388;52.314;7.938;2022-10-28T08:19:36;15.30;99.90
20459;DHT22;10388;52.314;7.938;2022-10-28T08:22:06;15.40;99.90
20459;DHT22;10388;52.314;7.938;2022-10-28T08:24:37;15.50;99.90
20459;DHT22;10388;52.314;7.938;2022-10-28T08:27:07;15.60;99.90
20459;DHT22;10388;52.314;7.938;2022-10-28T08:29:38;15.90;99.90
20459;DHT22;10388;52.314;7.938;2022-10-28T08:32:08;16.00;99.90
20459;DHT22;10388;52.314;7.938;2022-10-28T08:34:39;16.20;99.90
20459;DHT22;10388;52.314;7.938;2022-10-28T08:37:09;16.40;99.90
20459;DHT22;10388;52.314;7.938;2022-10-28T08:39:40;16.50;99.90
20459;DHT22;10388;52.314;7.938;2022-10-28T08:42:33;16.50;99.90
20459;DHT22;10388;52.314;7.938;2022-10-28T08:45:19;16.60;99.90
20459;DHT22;10388;52.314;7.938;2022-10-28T08:48:11;16.70;99.90
20459;DHT22;10388;52.314;7.938;2022-10-28T08:51:10;16.80;99.90
20459;DHT22;10388;52.314;7.938;2022-10-28T08:53:49;16.90;99.90
20459;DHT22;10388;52.314;7.938;2022-10-28T08:56:33;17.00;99.90
20459;DHT22;10388;52.314;7.938;2022-10-28T08:59:06;17.20;99.90
20459;DHT22;10388;52.314;7.938;2022-10-28T09:01:49;17.20;99.90
20459;DHT22;10388;52.314;7.938;2022-10-28T09:04:36;17.30;99.90
20459;DHT22;10388;52.314;7.938;2022-10-28T09:07:19;17.40;99.90
20459;DHT22;10388;52.314;7.938;2022-10-28T09:09:51;17.50;99.90
20459;DHT22;10388;52.314;7.938;2022-10-28T09:15:23;17.50;99.90
20459;DHT22;10388;52.314;7.938;2022-10-28T09:20:55;17.70;99.90
20459;DHT22;10388;52.314;7.938;2022-10-28T09:23:29;17.80;99.90
20459;DHT22;10388;52.314;7.938;2022-10-28T09:26:25;17.80;99.90
20459;DHT22;10388;52.314;7.938;2022-10-28T09:31:50;18.10;99.90
20459;DHT22;10388;52.314;7.938;2022-10-28T09:37:34;18.40;99.90
20459;DHT22;10388;52.314;7.938;2022-10-28T09:40:21;18.50;99.90
20459;DHT22;10388;52.314;7.938;2022-10-28T09:43:26;18.70;99.90
20459;DHT22;10388;52.314;7.938;2022-10-28T09:46:02;18.60;99.90
20459;DHT22;10388;52.314;7.938;2022-10-28T09:48:37;18.70;99.90
20459;DHT22;10388;52.314;7.938;2022-10-28T09:54:12;18.90;99.90
20459;DHT22;10388;52.314;7.938;2022-10-28T09:56:43;18.90;99.90
20459;DHT22;10388;52.314;7.938;2022-10-28T09:59:14;19.00;99.90
20459;DHT22;10388;52.314;7.938;2022-10-28T10:01:45;19.10;99.90
20459;DHT22;10388;52.314;7.938;2022-10-28T10:04:19;19.20;99.90
20459;DHT22;10388;52.314;7.938;2022-10-28T10:06:55;19.30;99.90
20459;DHT22;10388;52.314;7.938;2022-10-28T10:09:28;19.40;99.90
20459;DHT22;10388;52.314;7.938;2022-10-28T10:12:04;19.70;99.90
20459;DHT22;10388;52.314;7.938;2022-10-28T10:14:40;19.70;99.90
20459;DHT22;10388;52.314;7.938;2022-10-28T10:17:15;19.80;99.90
20459;DHT22;10388;52.314;7.938;2022-10-28T10:20:17;19.90;99.90
20459;DHT22;10388;52.314;7.938;2022-10-28T10:22:48;20.10;99.90
20459;DHT22;10388;52.314;7.938;2022-10-28T10:28:02;20.30;99.90
20459;DHT22;10388;52.314;7.938;2022-10-28T10:30:37;20.40;99.90
20459;DHT22;10388;52.314;7.938;2022-10-28T10:33:27;20.40;99.90
20459;DHT22;10388;52.314;7.938;2022-10-28T10:36:02;20.30;99.90
20459;DHT22;10388;52.314;7.938;2022-10-28T10:38:34;20.40;99.90
20459;DHT22;10388;52.314;7.938;2022-10-28T10:41:05;20.40;99.90
20459;DHT22;10388;52.314;7.938;2022-10-28T10:43:35;20.50;99.90
20459;DHT22;10388;52.314;7.938;2022-10-28T10:46:14;20.60;99.90
20459;DHT22;10388;52.314;7.938;2022-10-28T10:49:06;20.70;99.90
20459;DHT22;10388;52.314;7.938;2022-10-28T10:51:37;20.70;99.90
20459;DHT22;10388;52.314;7.938;2022-10-28T10:54:13;20.70;99.90
20459;DHT22;10388;52.314;7.938;2022-10-28T10:56:44;20.80;99.90
20459;DHT22;10388;52.314;7.938;2022-10-28T10:59:28;20.90;99.90
20459;DHT22;10388;52.314;7.938;2022-10-28T11:01:58;20.90;99.90
20459;DHT22;10388;52.314;7.938;2022-10-28T11:04:29;20.90;99.90
20459;DHT22;10388;52.314;7.938;2022-10-28T11:07:00;20.80;99.90
20459;DHT22;10388;52.314;7.938;2022-10-28T11:09:34;20.80;99.90
20459;DHT22;10388;52.314;7.938;2022-10-28T11:12:23;20.80;99.90
20459;DHT22;10388;52.314;7.938;2022-10-28T11:14:57;20.90;99.90
20459;DHT22;10388;52.314;7.938;2022-10-28T11:17:32;21.00;99.90
20459;DHT22;10388;52.314;7.938;2022-10-28T11:20:22;21.10;99.90
20459;DHT22;10388;52.314;7.938;2022-10-28T11:26:04;21.20;99.90
20459;DHT22;10388;52.314;7.938;2022-10-28T11:31:55;21.30;99.90
20459;DHT22;10388;52.314;7.938;2022-10-28T11:34:38;21.60;99.90
20459;DHT22;10388;52.314;7.938;2022-10-28T11:49:23;22.00;99.90
20459;DHT22;10388;52.314;7.938;2022-10-28T11:55:21;21.80;99.90
20459;DHT22;10388;52.314;7.938;2022-10-28T11:58:10;21.80;99.90
20459;DHT22;10388;52.314;7.938;2022-10-28T12:10:03;21.60;99.90
20459;DHT22;10388;52.314;7.938;2022-10-28T12:21:28;21.50;99.90
20459;DHT22;10388;52.314;7.938;2022-10-28T12:24:03;21.60;99.90
20459;DHT22;10388;52.314;7.938;2022-10-28T12:26:41;21.60;99.90
20459;DHT22;10388;52.314;7.938;2022-10-28T12:29:34;21.60;99.90
20459;DHT22;10388;52.314;7.938;2022-10-28T12:32:11;21.70;99.90
20459;DHT22;10388;52.314;7.938;2022-10-28T12:34:50;21.70;99.90
20459;DHT22;10388;52.314;7.938;2022-10-28T12:37:24;21.60;99.90
20459;DHT22;10388;52.314;7.938;2022-10-28T12:40:11;21.60;99.90
20459;DHT22;10388;52.314;7.938;2022-10-28T12:43:22;21.60;99.90
20459;DHT22;10388;52.314;7.938;2022-10-28T12:45:47;21.60;99.90
20459;DHT22;10388;52.314;7.938;2022-10-28T12:49:02;21.60;99.90
20459;DHT22;10388;52.314;7.938;2022-10-28T12:51:38;21.60;99.90
20459;DHT22;10388;52.314;7.938;2022-10-28T12:57:17;21.60;99.90
20459;DHT22;10388;52.314;7.938;2022-10-28T13:00:05;21.60;99.90
20459;DHT22;10388;52.314;7.938;2022-10-28T13:02:50;21.60;99.90
20459;DHT22;10388;52.314;7.938;2022-10-28T13:05:41;21.60;99.90
20459;DHT22;10388;52.314;7.938;2022-10-28T13:19:08;21.60;99.90
20459;DHT22;10388;52.314;7.938;2022-10-28T13:27:37;21.70;99.90
20459;DHT22;10388;52.314;7.938;2022-10-28T13:30:18;21.70;99.90
20459;DHT22;10388;52.314;7.938;2022-10-28T13:33:01;21.60;99.90
20459;DHT22;10388;52.314;7.938;2022-10-28T13:35:33;21.50;99.90
20459;DHT22;10388;52.314;7.938;2022-10-28T13:38:09;21.50;99.90
20459;DHT22;10388;52.314;7.938;2022-10-28T13:49:32;21.40;99.90
20459;DHT22;10388;52.314;7.938;2022-10-28T13:52:19;21.40;99.90
20459;DHT22;10388;52.314;7.938;2022-10-28T13:54:55;21.40;99.90
20459;DHT22;10388;52.314;7.938;2022-10-28T13:57:36;21.40;99.90
20459;DHT22;10388;52.314;7.938;2022-10-28T14:02:52;21.30;99.90
20459;DHT22;10388;52.314;7.938;2022-10-28T14:08:16;21.20;99.90
20459;DHT22;10388;52.314;7.938;2022-10-28T14:13:53;21.20;99.90
20459;DHT22;10388;52.314;7.938;2022-10-28T14:16:35;21.10;99.90
20459;DHT22;10388;52.314;7.938;2022-10-28T14:22:01;21.10;99.90
20459;DHT22;10388;52.314;7.938;2022-10-28T14:24:40;21.10;99.90
20459;DHT22;10388;52.314;7.938;2022-10-28T14:27:27;21.00;99.90
20459;DHT22;10388;52.314;7.938;2022-10-28T14:35:18;21.00;99.90
20459;DHT22;10388;52.314;7.938;2022-10-28T14:41:02;21.00;99.90
20459;DHT22;10388;52.314;7.938;2022-10-28T14:43:56;20.90;99.90
20459;DHT22;10388;52.314;7.938;2022-10-28T14:49:57;20.90;99.90
20459;DHT22;10388;52.314;7.938;2022-10-28T14:52:30;20.80;99.90
20459;DHT22;10388;52.314;7.938;2022-10-28T14:55:04;20.80;99.90
20459;DHT22;10388;52.314;7.938;2022-10-28T14:57:36;20.80;99.90
20459;DHT22;10388;52.314;7.938;2022-10-28T15:00:14;20.70;99.90
20459;DHT22;10388;52.314;7.938;2022-10-28T15:02:46;20.70;99.90
20459;DHT22;10388;52.314;7.938;2022-10-28T15:05:20;20.70;99.90
20459;DHT22;10388;52.314;7.938;2022-10-28T15:07:51;20.60;99.90
20459;DHT22;10388;52.314;7.938;2022-10-28T15:10:25;20.50;99.90
20459;DHT22;10388;52.314;7.938;2022-10-28T15:12:58;20.50;99.90
20459;DHT22;10388;52.314;7.938;2022-10-28T15:15:32;20.40;99.90
20459;DHT22;10388;52.314;7.938;2022-10-28T15:18:20;20.40;99.90
20459;DHT22;10388;52.314;7.938;2022-10-28T15:21:12;20.30;99.90
20459;DHT22;10388;52.314;7.938;2022-10-28T15:23:44;20.20;99.90
20459;DHT22;10388;52.314;7.938;2022-10-28T15:26:26;20.20;99.90
20459;DHT22;10388;52.314;7.938;2022-10-28T15:28:59;20.10;99.90
20459;DHT22;10388;52.314;7.938;2022-10-28T15:31:29;20.00;99.90
20459;DHT22;10388;52.314;7.938;2022-10-28T15:34:00;19.90;99.90
20459;DHT22;10388;52.314;7.938;2022-10-28T15:36:30;19.80;99.90
20459;DHT22;10388;52.314;7.938;2022-10-28T15:41:41;19.70;99.90
20459;DHT22;10388;52.314;7.938;2022-10-28T15:46:55;19.70;99.90
20459;DHT22;10388;52.314;7.938;2022-10-28T15:54:56;19.50;99.90
20459;DHT22;10388;52.314;7.938;2022-10-28T15:57:30;19.40;99.90
20459;DHT22;10388;52.314;7.938;2022-10-28T16:03:02;19.30;99.90
20459;DHT22;10388;52.314;7.938;2022-10-28T16:05:42;19.20;99.90
20459;DHT22;10388;52.314;7.938;2022-10-28T16:08:27;19.20;99.90
20459;DHT22;10388;52.314;7.938;2022-10-28T16:11:02;19.10;99.90
20459;DHT22;10388;52.314;7.938;2022-10-28T16:16:09;19.10;99.90
20459;DHT22;10388;52.314;7.938;2022-10-28T16:18:44;19.10;99.90
20459;DHT22;10388;52.314;7.938;2022-10-28T16:21:21;19.00;99.90
20459;DHT22;10388;52.314;7.938;2022-10-28T16:23:53;19.00;99.90
20459;DHT22;10388;52.314;7.938;2022-10-28T16:26:30;19.00;99.90
20459;DHT22;10388;52.314;7.938;2022-10-28T16:29:00;19.00;99.90
20459;DHT22;10388;52.314;7.938;2022-10-28T16:31:31;19.10;99.90
20459;DHT22;10388;52.314;7.938;2022-10-28T16:34:01;19.00;99.90
20459;DHT22;10388;52.314;7.938;2022-10-28T16:36:32;19.00;99.90
20459;DHT22;10388;52.314;7.938;2022-10-28T16:39:04;18.90;99.90
20459;DHT22;10388;52.314;7.938;2022-10-28T16:41:37;18.90;99.90
20459;DHT22;10388;52.314;7.938;2022-10-28T16:44:17;18.80;99.90
20459;DHT22;10388;52.314;7.938;2022-10-28T16:46:47;18.80;99.90
20459;DHT22;10388;52.314;7.938;2022-10-28T16:49:18;18.80;99.90
20459;DHT22;10388;52.314;7.938;2022-10-28T16:51:48;18.80;99.90
20459;DHT22;10388;52.314;7.938;2022-10-28T16:54:19;18.80;99.90
20459;DHT22;10388;52.314;7.938;2022-10-28T16:56:49;18.80;99.90
20459;DHT22;10388;52.314;7.938;2022-10-28T16:59:20;18.80;99.90
20459;DHT22;10388;52.314;7.938;2022-10-28T17:01:50;18.70;99.90
20459;DHT22;10388;52.314;7.938;2022-10-28T17:04:21;18.70;99.90
20459;DHT22;10388;52.314;7.938;2022-10-28T17:06:51;18.70;99.90
20459;DHT22;10388;52.314;7.938;2022-10-28T17:09:22;18.70;99.90
20459;DHT22;10388;52.314;7.938;2022-10-28T17:11:52;18.60;99.90
20459;DHT22;10388;52.314;7.938;2022-10-28T17:14:23;18.60;99.90
20459;DHT22;10388;52.314;7.938;2022-10-28T17:16:53;18.60;99.90
20459;DHT22;10388;52.314;7.938;2022-10-28T17:19:24;18.60;99.90
20459;DHT22;10388;52.314;7.938;2022-10-28T17:21:54;18.60;99.90
20459;DHT22;10388;52.314;7.938;2022-10-28T17:24:25;18.60;99.90
20459;DHT22;10388;52.314;7.938;2022-10-28T17:26:56;18.60;99.90
20459;DHT22;10388;52.314;7.938;2022-10-28T17:29:26;18.60;99.90
20459;DHT22;10388;52.314;7.938;2022-10-28T17:31:57;18.50;99.90
20459;DHT22;10388;52.314;7.938;2022-10-28T17:34:28;18.50;99.90
20459;DHT22;10388;52.314;7.938;2022-10-28T17:36:58;18.40;99.90
20459;DHT22;10388;52.314;7.938;2022-10-28T17:39:29;18.40;99.90
20459;DHT22;10388;52.314;7.938;2022-10-28T17:41:59;18.40;99.90
20459;DHT22;10388;52.314;7.938;2022-10-28T17:44:30;18.40;99.90
20459;DHT22;10388;52.314;7.938;2022-10-28T17:47:01;18.40;99.90
20459;DHT22;10388;52.314;7.938;2022-10-28T17:49:31;18.40;99.90
20459;DHT22;10388;52.314;7.938;2022-10-28T17:52:03;18.40;99.90
20459;DHT22;10388;52.314;7.938;2022-10-28T17:54:34;18.30;99.90
20459;DHT22;10388;52.314;7.938;2022-10-28T17:57:04;18.30;99.90
20459;DHT22;10388;52.314;7.938;2022-10-28T17:59:35;18.30;99.90
20459;DHT22;10388;52.314;7.938;2022-10-28T18:02:05;18.20;99.90
20459;DHT22;10388;52.314;7.938;2022-10-28T18:04:36;18.20;99.90
20459;DHT22;10388;52.314;7.938;2022-10-28T18:07:06;18.20;99.90
20459;DHT22;10388;52.314;7.938;2022-10-28T18:09:37;18.10;99.90
20459;DHT22;10388;52.314;7.938;2022-10-28T18:12:09;18.10;99.90
20459;DHT22;10388;52.314;7.938;2022-10-28T18:14:41;18.10;99.90
20459;DHT22;10388;52.314;7.938;2022-10-28T18:17:12;18.10;99.90
20459;DHT22;10388;52.314;7.938;2022-10-28T18:19:43;18.10;99.90
20459;DHT22;10388;52.314;7.938;2022-10-28T18:22:14;18.10;99.90
20459;DHT22;10388;52.314;7.938;2022-10-28T18:24:44;18.00;99.90
20459;DHT22;10388;52.314;7.938;2022-10-28T18:27:15;18.00;99.90
20459;DHT22;10388;52.314;7.938;2022-10-28T18:29:45;17.90;99.90
20459;DHT22;10388;52.314;7.938;2022-10-28T18:32:16;17.90;99.90
20459;DHT22;10388;52.314;7.938;2022-10-28T18:34:46;17.90;99.90
20459;DHT22;10388;52.314;7.938;2022-10-28T18:37:17;17.80;99.90
20459;DHT22;10388;52.314;7.938;2022-10-28T18:39:47;17.80;99.90
20459;DHT22;10388;52.314;7.938;2022-10-28T18:42:18;17.80;99.90
20459;DHT22;10388;52.314;7.938;2022-10-28T18:44:49;17.80;99.90
20459;DHT22;10388;52.314;7.938;2022-10-28T18:47:19;17.80;99.90
20459;DHT22;10388;52.314;7.938;2022-10-28T18:49:50;17.70;99.90
20459;DHT22;10388;52.314;7.938;2022-10-28T18:52:20;17.70;99.90